sensor_id;sensor_type;location;lat;lon;timestamp;pressure;altitude;pressure_sealevel;temperature;humidity
43115;BME280;28727;50.068;14.452;2023-09-19T00:01:14;98625.53;;;19.18;74.56
43115;BME280;28727;50.068;14.452;2023-09-19T00:03:46;98630.00;;;19.13;75.17
43115;BME280;28727;50.068;14.452;2023-09-19T00:06:21;98630.56;;;19.15;74.86
43115;BME280;28727;50.068;14.452;2023-09-19T00:08:53;98623.59;;;19.14;74.68
43115;BME280;28727;50.068;14.452;2023-09-19T00:11:26;98633.16;;;19.10;74.54
43115;BME280;28727;50.068;14.452;2023-09-19T00:13:58;98638.66;;;19.03;74.77
43115;BME280;28727;50.068;14.452;2023-09-19T00:16:34;98645.06;;;19.02;75.18
43115;BME280;28727;50.068;14.452;2023-09-19T00:19:07;98648.00;;;19.01;75.74
43115;BME280;28727;50.068;14.452;2023-09-19T00:21:43;98650.09;;;18.99;75.99
43115;BME280;28727;50.068;14.452;2023-09-19T00:24:17;98648.38;;;18.93;76.07
43115;BME280;28727;50.068;14.452;2023-09-19T00:26:49;98652.91;;;18.92;76.27
43115;BME280;28727;50.068;14.452;2023-09-19T00:29:21;98654.44;;;18.88;75.96
43115;BME280;28727;50.068;14.452;2023-09-19T00:31:55;98650.13;;;18.87;76.15
43115;BME280;28727;50.068;14.452;2023-09-19T00:34:28;98659.78;;;18.88;75.91
43115;BME280;28727;50.068;14.452;2023-09-19T00:37:04;98660.03;;;18.87;75.82
43115;BME280;28727;50.068;14.452;2023-09-19T00:39:36;98659.94;;;18.81;75.65
43115;BME280;28727;50.068;14.452;2023-09-19T00:42:18;98664.38;;;18.76;75.79
43115;BME280;28727;50.068;14.452;2023-09-19T00:44:52;98670.53;;;18.76;75.75
43115;BME280;28727;50.068;14.452;2023-09-19T00:47:24;98664.38;;;18.76;75.89
43115;BME280;28727;50.068;14.452;2023-09-19T00:49:57;98672.41;;;18.76;74.95
43115;BME280;28727;50.068;14.452;2023-09-19T00:52:30;98670.78;;;18.75;74.84
43115;BME280;28727;50.068;14.452;2023-09-19T00:55:05;98674.50;;;18.74;74.75
43115;BME280;28727;50.068;14.452;2023-09-19T00:57:39;98658.69;;;18.72;74.58
43115;BME280;28727;50.068;14.452;2023-09-19T01:00:18;98661.25;;;18.67;74.70
43115;BME280;28727;50.068;14.452;2023-09-19T01:02:52;98656.47;;;18.69;74.50
43115;BME280;28727;50.068;14.452;2023-09-19T01:05:30;98644.50;;;18.72;74.66
43115;BME280;28727;50.068;14.452;2023-09-19T01:08:07;98654.41;;;18.71;74.46
43115;BME280;28727;50.068;14.452;2023-09-19T01:10:46;98653.09;;;18.74;74.33
43115;BME280;28727;50.068;14.452;2023-09-19T01:13:36;98651.13;;;18.69;74.73
43115;BME280;28727;50.068;14.452;2023-09-19T01:16:32;98663.28;;;18.60;74.42
43115;BME280;28727;50.068;14.452;2023-09-19T01:28:43;98651.06;;;18.41;73.83
43115;BME280;28727;50.068;14.452;2023-09-19T01:31:19;98654.47;;;18.36;73.67
43115;BME280;28727;50.068;14.452;2023-09-19T01:34:00;98648.75;;;18.33;73.62
43115;BME280;28727;50.068;14.452;2023-09-19T01:36:35;98648.53;;;18.34;73.25
43115;BME280;28727;50.068;14.452;2023-09-19T01:39:11;98649.00;;;18.31;73.18
43115;BME280;28727;50.068;14.452;2023-09-19T01:41:59;98645.97;;;18.28;72.92
43115;BME280;28727;50.068;14.452;2023-09-19T01:44:47;98647.50;;;18.24;73.43
43115;BME280;28727;50.068;14.452;2023-09-19T01:47:32;98652.25;;;18.22;73.03
43115;BME280;28727;50.068;14.452;2023-09-19T01:56:24;98650.19;;;18.24;73.33
43115;BME280;28727;50.068;14.452;2023-09-19T01:58:59;98646.38;;;18.20;73.17
43115;BME280;28727;50.068;14.452;2023-09-19T02:01:35;98659.97;;;18.18;73.40
43115;BME280;28727;50.068;14.452;2023-09-19T02:04:09;98656.47;;;18.18;73.38
43115;BME280;28727;50.068;14.452;2023-09-19T02:06:42;98648.22;;;18.19;73.26
43115;BME280;28727;50.068;14.452;2023-09-19T02:09:14;98650.41;;;18.22;73.29
43115;BME280;28727;50.068;14.452;2023-09-19T02:11:49;98656.91;;;18.26;72.96
43115;BME280;28727;50.068;14.452;2023-09-19T02:14:21;98654.59;;;18.30;72.95
43115;BME280;28727;50.068;14.452;2023-09-19T02:17:04;98651.44;;;18.33;72.48
43115;BME280;28727;50.068;14.452;2023-09-19T02:19:42;98640.72;;;18.33;72.54
43115;BME280;28727;50.068;14.452;2023-09-19T02:22:14;98641.09;;;18.36;72.49
43115;BME280;28727;50.068;14.452;2023-09-19T02:24:52;98639.47;;;18.35;72.12
43115;BME280;28727;50.068;14.452;2023-09-19T02:27:29;98645.25;;;18.32;72.21
43115;BME280;28727;50.068;14.452;2023-09-19T02:30:05;98645.53;;;18.31;72.13
43115;BME280;28727;50.068;14.452;2023-09-19T02:32:38;98639.59;;;18.29;72.23
43115;BME280;28727;50.068;14.452;2023-09-19T02:35:10;98648.66;;;18.28;72.33
43115;BME280;28727;50.068;14.452;2023-09-19T02:37:43;98646.69;;;18.23;72.84
43115;BME280;28727;50.068;14.452;2023-09-19T02:40:16;98643.91;;;18.30;72.42
43115;BME280;28727;50.068;14.452;2023-09-19T02:42:55;98647.03;;;18.27;72.45
43115;BME280;28727;50.068;14.452;2023-09-19T02:45:31;98651.09;;;18.29;72.36
43115;BME280;28727;50.068;14.452;2023-09-19T02:48:04;98643.91;;;18.30;72.46
43115;BME280;28727;50.068;14.452;2023-09-19T02:50:39;98641.00;;;18.31;72.27
43115;BME280;28727;50.068;14.452;2023-09-19T02:53:11;98644.44;;;18.32;72.25
43115;BME280;28727;50.068;14.452;2023-09-19T02:55:46;98634.00;;;18.30;72.16
43115;BME280;28727;50.068;14.452;2023-09-19T02:58:18;98637.50;;;18.31;72.03
43115;BME280;28727;50.068;14.452;2023-09-19T03:00:51;98634.00;;;18.30;71.76
43115;BME280;28727;50.068;14.452;2023-09-19T03:03:23;98633.44;;;18.28;71.68
43115;BME280;28727;50.068;14.452;2023-09-19T03:05:55;98628.06;;;18.28;71.51
43115;BME280;28727;50.068;14.452;2023-09-19T03:08:32;98633.75;;;18.32;71.33
43115;BME280;28727;50.068;14.452;2023-09-19T03:11:10;98624.81;;;18.26;71.45
43115;BME280;28727;50.068;14.452;2023-09-19T03:13:52;98635.50;;;18.26;71.73
43115;BME280;28727;50.068;14.452;2023-09-19T03:16:26;98641.66;;;18.27;71.64
43115;BME280;28727;50.068;14.452;2023-09-19T03:19:02;98632.59;;;18.28;71.65
43115;BME280;28727;50.068;14.452;2023-09-19T03:21:36;98643.31;;;18.28;71.63
43115;BME280;28727;50.068;14.452;2023-09-19T03:24:08;98638.53;;;18.30;71.51
43115;BME280;28727;50.068;14.452;2023-09-19T03:26:40;98641.22;;;18.30;71.55
43115;BME280;28727;50.068;14.452;2023-09-19T03:29:12;98640.19;;;18.31;71.54
43115;BME280;28727;50.068;14.452;2023-09-19T03:31:51;98642.59;;;18.32;71.52
43115;BME280;28727;50.068;14.452;2023-09-19T03:34:23;98639.59;;;18.29;71.34
43115;BME280;28727;50.068;14.452;2023-09-19T03:36:55;98641.13;;;18.25;71.68
43115;BME280;28727;50.068;14.452;2023-09-19T03:39:27;98648.56;;;18.23;71.69
43115;BME280;28727;50.068;14.452;2023-09-19T03:41:59;98648.22;;;18.19;72.06
43115;BME280;28727;50.068;14.452;2023-09-19T03:44:30;98643.91;;;18.18;72.32
43115;BME280;28727;50.068;14.452;2023-09-19T03:47:05;98641.00;;;18.20;72.24
43115;BME280;28727;50.068;14.452;2023-09-19T03:49:38;98643.69;;;18.20;72.19
43115;BME280;28727;50.068;14.452;2023-09-19T03:52:10;98636.22;;;18.22;72.19
43115;BME280;28727;50.068;14.452;2023-09-19T03:54:45;98641.56;;;18.22;72.15
43115;BME280;28727;50.068;14.452;2023-09-19T03:57:19;98651.22;;;18.23;72.20
43115;BME280;28727;50.068;14.452;2023-09-19T03:59:52;98642.97;;;18.24;72.28
43115;BME280;28727;50.068;14.452;2023-09-19T04:02:26;98645.41;;;18.26;72.13
43115;BME280;28727;50.068;14.452;2023-09-19T04:05:05;98645.16;;;18.27;72.16
43115;BME280;28727;50.068;14.452;2023-09-19T04:07:37;98658.78;;;18.26;72.27
43115;BME280;28727;50.068;14.452;2023-09-19T04:10:10;98661.91;;;18.23;72.30
43115;BME280;28727;50.068;14.452;2023-09-19T04:13:12;98669.34;;;18.21;72.68
43115;BME280;28727;50.068;14.452;2023-09-19T04:15:45;98672.03;;;18.21;73.06
43115;BME280;28727;50.068;14.452;2023-09-19T04:18:18;98675.78;;;18.20;73.22
43115;BME280;28727;50.068;14.452;2023-09-19T04:20:52;98675.41;;;18.16;73.49
43115;BME280;28727;50.068;14.452;2023-09-19T04:23:25;98682.38;;;18.17;73.75
43115;BME280;28727;50.068;14.452;2023-09-19T04:25:57;98683.53;;;18.21;73.40
43115;BME280;28727;50.068;14.452;2023-09-19T04:28:29;98681.78;;;18.27;73.27
43115;BME280;28727;50.068;14.452;2023-09-19T04:31:03;98691.66;;;18.26;73.15
43115;BME280;28727;50.068;14.452;2023-09-19T04:33:38;98699.34;;;18.23;72.91
43115;BME280;28727;50.068;14.452;2023-09-19T04:36:10;98700.75;;;18.25;73.13
43115;BME280;28727;50.068;14.452;2023-09-19T04:39:07;98707.16;;;18.24;73.29
43115;BME280;28727;50.068;14.452;2023-09-19T04:41:39;98705.03;;;18.26;73.49
43115;BME280;28727;50.068;14.452;2023-09-19T04:44:15;98711.78;;;18.29;73.44
43115;BME280;28727;50.068;14.452;2023-09-19T04:46:50;98707.84;;;18.31;73.24
43115;BME280;28727;50.068;14.452;2023-09-19T04:49:22;98713.97;;;18.32;72.96
43115;BME280;28727;50.068;14.452;2023-09-19T04:51:54;98717.94;;;18.29;73.09
43115;BME280;28727;50.068;14.452;2023-09-19T04:54:27;98717.47;;;18.32;73.03
43115;BME280;28727;50.068;14.452;2023-09-19T04:56:59;98727.94;;;18.34;72.92
43115;BME280;28727;50.068;14.452;2023-09-19T04:59:30;98729.78;;;18.33;73.02
43115;BME280;28727;50.068;14.452;2023-09-19T05:02:03;98748.75;;;18.32;73.18
43115;BME280;28727;50.068;14.452;2023-09-19T05:04:35;98751.06;;;18.28;73.40
43115;BME280;28727;50.068;14.452;2023-09-19T05:07:07;98748.75;;;18.32;73.46
43115;BME280;28727;50.068;14.452;2023-09-19T05:09:39;98748.28;;;18.35;72.93
43115;BME280;28727;50.068;14.452;2023-09-19T05:12:13;98749.09;;;18.35;73.00
43115;BME280;28727;50.068;14.452;2023-09-19T05:14:45;98757.13;;;18.35;73.03
43115;BME280;28727;50.068;14.452;2023-09-19T05:17:17;98758.38;;;18.33;72.89
43115;BME280;28727;50.068;14.452;2023-09-19T05:19:53;98761.31;;;18.31;72.83
43115;BME280;28727;50.068;14.452;2023-09-19T05:22:27;98764.56;;;18.33;72.87
43115;BME280;28727;50.068;14.452;2023-09-19T05:24:59;98765.38;;;18.34;72.79
43115;BME280;28727;50.068;14.452;2023-09-19T05:27:31;98771.53;;;18.34;72.87
43115;BME280;28727;50.068;14.452;2023-09-19T05:30:03;98774.22;;;18.34;72.63
43115;BME280;28727;50.068;14.452;2023-09-19T05:32:42;98780.16;;;18.36;73.18
43115;BME280;28727;50.068;14.452;2023-09-19T05:35:15;98772.13;;;18.36;72.62
43115;BME280;28727;50.068;14.452;2023-09-19T05:37:51;98772.69;;;18.38;72.68
43115;BME280;28727;50.068;14.452;2023-09-19T05:40:26;98781.53;;;18.39;72.66
43115;BME280;28727;50.068;14.452;2023-09-19T05:42:59;98776.28;;;18.44;72.55
43115;BME280;28727;50.068;14.452;2023-09-19T05:45:35;98779.56;;;18.46;72.37
43115;BME280;28727;50.068;14.452;2023-09-19T05:48:12;98775.97;;;18.40;72.48
43115;BME280;28727;50.068;14.452;2023-09-19T05:50:48;98781.19;;;18.35;72.84
43115;BME280;28727;50.068;14.452;2023-09-19T05:53:24;98783.06;;;18.35;72.79
43115;BME280;28727;50.068;14.452;2023-09-19T05:55:56;98780.38;;;18.35;72.60
43115;BME280;28727;50.068;14.452;2023-09-19T05:58:29;98777.22;;;18.38;72.40
43115;BME280;28727;50.068;14.452;2023-09-19T06:01:00;98783.97;;;18.52;73.23
43115;BME280;28727;50.068;14.452;2023-09-19T06:03:35;98771.53;;;18.69;73.86
43115;BME280;28727;50.068;14.452;2023-09-19T06:06:09;98777.66;;;18.93;72.82
43115;BME280;28727;50.068;14.452;2023-09-19T06:08:44;98781.56;;;19.14;71.59
43115;BME280;28727;50.068;14.452;2023-09-19T06:11:16;98780.91;;;19.35;71.07
43115;BME280;28727;50.068;14.452;2023-09-19T06:13:48;98798.00;;;19.46;70.29
43115;BME280;28727;50.068;14.452;2023-09-19T06:16:20;98803.91;;;19.59;69.11
43115;BME280;28727;50.068;14.452;2023-09-19T06:18:52;98813.81;;;19.59;69.53
43115;BME280;28727;50.068;14.452;2023-09-19T06:21:26;98814.78;;;19.70;69.38
43115;BME280;28727;50.068;14.452;2023-09-19T06:24:01;98827.81;;;19.78;68.92
43115;BME280;28727;50.068;14.452;2023-09-19T06:26:32;98825.22;;;19.83;68.41
43115;BME280;28727;50.068;14.452;2023-09-19T06:29:04;98830.91;;;19.86;68.28
43115;BME280;28727;50.068;14.452;2023-09-19T06:31:42;98836.63;;;19.90;67.77
43115;BME280;28727;50.068;14.452;2023-09-19T06:34:16;98830.13;;;20.02;67.75
43115;BME280;28727;50.068;14.452;2023-09-19T06:36:51;98840.78;;;20.14;67.31
43115;BME280;28727;50.068;14.452;2023-09-19T06:39:23;98854.34;;;20.24;67.02
43115;BME280;28727;50.068;14.452;2023-09-19T06:41:55;98850.69;;;20.30;66.49
43115;BME280;28727;50.068;14.452;2023-09-19T06:44:27;98854.31;;;20.36;66.76
43115;BME280;28727;50.068;14.452;2023-09-19T06:47:04;98848.78;;;20.42;66.03
43115;BME280;28727;50.068;14.452;2023-09-19T06:49:42;98852.66;;;20.52;65.08
43115;BME280;28727;50.068;14.452;2023-09-19T06:52:15;98850.31;;;20.55;65.12
43115;BME280;28727;50.068;14.452;2023-09-19T06:54:47;98853.31;;;20.59;64.92
43115;BME280;28727;50.068;14.452;2023-09-19T06:57:22;98846.56;;;20.73;64.72
43115;BME280;28727;50.068;14.452;2023-09-19T06:59:54;98857.09;;;20.79;64.47
43115;BME280;28727;50.068;14.452;2023-09-19T07:02:25;98863.56;;;20.78;64.46
43115;BME280;28727;50.068;14.452;2023-09-19T07:04:57;98860.94;;;20.83;64.59
43115;BME280;28727;50.068;14.452;2023-09-19T07:07:31;98867.84;;;20.96;63.90
43115;BME280;28727;50.068;14.452;2023-09-19T07:10:09;98866.03;;;21.02;63.81
43115;BME280;28727;50.068;14.452;2023-09-19T07:12:43;98874.78;;;21.14;62.93
43115;BME280;28727;50.068;14.452;2023-09-19T07:15:18;98873.91;;;21.08;62.85
43115;BME280;28727;50.068;14.452;2023-09-19T07:17:51;98868.59;;;21.13;62.75
43115;BME280;28727;50.068;14.452;2023-09-19T07:20:24;98876.81;;;21.23;62.55
43115;BME280;28727;50.068;14.452;2023-09-19T07:23:03;98876.31;;;21.27;62.79
43115;BME280;28727;50.068;14.452;2023-09-19T07:25:38;98878.56;;;21.35;62.39
43115;BME280;28727;50.068;14.452;2023-09-19T07:28:10;98876.50;;;21.42;62.02
43115;BME280;28727;50.068;14.452;2023-09-19T07:30:42;98879.94;;;21.59;61.46
43115;BME280;28727;50.068;14.452;2023-09-19T07:33:19;98882.78;;;21.74;60.63
43115;BME280;28727;50.068;14.452;2023-09-19T07:35:54;98884.94;;;21.72;60.94
43115;BME280;28727;50.068;14.452;2023-09-19T07:38:26;98885.78;;;21.78;60.30
43115;BME280;28727;50.068;14.452;2023-09-19T07:41:01;98891.47;;;21.81;60.02
43115;BME280;28727;50.068;14.452;2023-09-19T07:43:35;98888.50;;;21.78;60.16
43115;BME280;28727;50.068;14.452;2023-09-19T07:46:08;98889.75;;;21.70;60.07
43115;BME280;28727;50.068;14.452;2023-09-19T07:48:43;98887.88;;;21.71;60.03
43115;BME280;28727;50.068;14.452;2023-09-19T07:51:20;98894.09;;;21.76;59.74
43115;BME280;28727;50.068;14.452;2023-09-19T07:53:52;98887.09;;;21.75;59.62
43115;BME280;28727;50.068;14.452;2023-09-19T07:56:24;98894.09;;;21.76;59.47
43115;BME280;28727;50.068;14.452;2023-09-19T07:59:02;98894.16;;;21.81;59.75
43115;BME280;28727;50.068;14.452;2023-09-19T08:01:34;98901.75;;;21.84;58.99
43115;BME280;28727;50.068;14.452;2023-09-19T08:04:12;98899.75;;;21.96;59.15
43115;BME280;28727;50.068;14.452;2023-09-19T08:07:08;98899.78;;;22.01;58.67
43115;BME280;28727;50.068;14.452;2023-09-19T08:09:40;98900.59;;;22.02;58.60
43115;BME280;28727;50.068;14.452;2023-09-19T08:12:12;98899.66;;;22.13;58.65
43115;BME280;28727;50.068;14.452;2023-09-19T08:14:44;98903.22;;;22.24;58.30
43115;BME280;28727;50.068;14.452;2023-09-19T08:17:16;98912.28;;;22.44;58.08
43115;BME280;28727;50.068;14.452;2023-09-19T08:22:25;98917.00;;;22.91;55.94
43115;BME280;28727;50.068;14.452;2023-09-19T08:24:57;98920.28;;;23.03;55.42
43115;BME280;28727;50.068;14.452;2023-09-19T08:27:29;98918.16;;;23.05;55.29
43115;BME280;28727;50.068;14.452;2023-09-19T08:30:02;98932.19;;;23.07;54.88
43115;BME280;28727;50.068;14.452;2023-09-19T08:32:35;98931.41;;;23.12;54.58
43115;BME280;28727;50.068;14.452;2023-09-19T08:35:07;98932.47;;;23.11;54.70
43115;BME280;28727;50.068;14.452;2023-09-19T08:37:42;98927.63;;;23.08;53.66
43115;BME280;28727;50.068;14.452;2023-09-19T08:40:18;98926.56;;;23.09;54.46
43115;BME280;28727;50.068;14.452;2023-09-19T08:42:52;98936.25;;;23.10;54.80
43115;BME280;28727;50.068;14.452;2023-09-19T08:45:25;98933.50;;;23.00;54.51
43115;BME280;28727;50.068;14.452;2023-09-19T08:53:41;98936.97;;;22.95;54.42
43115;BME280;28727;50.068;14.452;2023-09-19T08:56:17;98943.84;;;23.18;53.30
43115;BME280;28727;50.068;14.452;2023-09-19T08:59:03;98942.47;;;23.15;53.83
43115;BME280;28727;50.068;14.452;2023-09-19T09:01:45;98947.44;;;23.39;53.79
43115;BME280;28727;50.068;14.452;2023-09-19T09:04:20;98953.00;;;23.64;52.81
43115;BME280;28727;50.068;14.452;2023-09-19T09:06:55;98945.88;;;24.05;52.11
43115;BME280;28727;50.068;14.452;2023-09-19T09:09:28;98950.31;;;24.72;49.95
43115;BME280;28727;50.068;14.452;2023-09-19T09:12:00;98942.44;;;25.26;48.05
43115;BME280;28727;50.068;14.452;2023-09-19T09:14:34;98949.94;;;25.49;46.55
43115;BME280;28727;50.068;14.452;2023-09-19T09:17:07;98946.88;;;25.76;46.37
43115;BME280;28727;50.068;14.452;2023-09-19T09:19:39;98949.59;;;25.76;46.61
43115;BME280;28727;50.068;14.452;2023-09-19T09:22:14;98943.41;;;25.71;45.17
43115;BME280;28727;50.068;14.452;2023-09-19T09:24:57;98950.34;;;25.87;44.61
43115;BME280;28727;50.068;14.452;2023-09-19T09:27:36;98948.19;;;25.89;44.90
43115;BME280;28727;50.068;14.452;2023-09-19T09:30:08;98948.75;;;25.81;45.46
43115;BME280;28727;50.068;14.452;2023-09-19T09:32:40;98948.84;;;25.45;46.29
43115;BME280;28727;50.068;14.452;2023-09-19T09:35:57;98944.63;;;24.99;47.00
43115;BME280;28727;50.068;14.452;2023-09-19T09:38:43;98953.81;;;24.42;48.09
43115;BME280;28727;50.068;14.452;2023-09-19T09:41:16;98945.59;;;24.06;48.57
43115;BME280;28727;50.068;14.452;2023-09-19T09:44:12;98950.69;;;23.88;48.17
43115;BME280;28727;50.068;14.452;2023-09-19T09:46:47;98937.97;;;23.78;48.42
43115;BME280;28727;50.068;14.452;2023-09-19T09:49:27;98930.97;;;23.82;49.70
43115;BME280;28727;50.068;14.452;2023-09-19T09:52:07;98923.44;;;23.99;48.63
43115;BME280;28727;50.068;14.452;2023-09-19T09:55:02;98917.59;;;24.28;47.55
43115;BME280;28727;50.068;14.452;2023-09-19T09:57:39;98917.63;;;24.48;46.53
43115;BME280;28727;50.068;14.452;2023-09-19T10:00:13;98919.50;;;24.73;46.94
43115;BME280;28727;50.068;14.452;2023-09-19T10:02:45;98917.88;;;24.72;46.27
43115;BME280;28727;50.068;14.452;2023-09-19T10:05:20;98919.25;;;24.95;46.67
43115;BME280;28727;50.068;14.452;2023-09-19T10:07:52;98927.03;;;25.26;46.29
43115;BME280;28727;50.068;14.452;2023-09-19T10:10:44;98917.47;;;25.54;44.92
43115;BME280;28727;50.068;14.452;2023-09-19T10:13:30;98927.63;;;25.83;45.00
43115;BME280;28727;50.068;14.452;2023-09-19T10:16:06;98931.50;;;26.26;44.46
43115;BME280;28727;50.068;14.452;2023-09-19T10:18:43;98933.28;;;26.40;43.05
43115;BME280;28727;50.068;14.452;2023-09-19T10:21:19;98942.38;;;26.55;41.93
43115;BME280;28727;50.068;14.452;2023-09-19T10:23:58;98942.94;;;26.52;41.08
43115;BME280;28727;50.068;14.452;2023-09-19T10:26:31;98934.13;;;26.70;41.12
43115;BME280;28727;50.068;14.452;2023-09-19T10:29:07;98940.78;;;26.82;40.98
43115;BME280;28727;50.068;14.452;2023-09-19T10:31:46;98940.63;;;26.69;41.29
43115;BME280;28727;50.068;14.452;2023-09-19T10:34:20;98946.06;;;26.69;41.62
43115;BME280;28727;50.068;14.452;2023-09-19T10:36:59;98942.56;;;26.63;41.51
43115;BME280;28727;50.068;14.452;2023-09-19T10:39:45;98941.47;;;26.98;40.30
43115;BME280;28727;50.068;14.452;2023-09-19T10:42:26;98937.63;;;27.04;39.21
43115;BME280;28727;50.068;14.452;2023-09-19T10:45:01;98934.06;;;26.80;39.44
43115;BME280;28727;50.068;14.452;2023-09-19T10:47:40;98938.34;;;26.86;40.14
43115;BME280;28727;50.068;14.452;2023-09-19T10:50:20;98935.78;;;27.00;41.06
43115;BME280;28727;50.068;14.452;2023-09-19T10:53:00;98940.22;;;26.91;37.99
43115;BME280;28727;50.068;14.452;2023-09-19T10:55:40;98941.47;;;27.03;37.13
43115;BME280;28727;50.068;14.452;2023-09-19T10:58:12;98939.59;;;26.99;36.33
43115;BME280;28727;50.068;14.452;2023-09-19T11:00:55;98930.44;;;27.18;36.36
43115;BME280;28727;50.068;14.452;2023-09-19T11:03:27;98930.03;;;27.06;37.08
43115;BME280;28727;50.068;14.452;2023-09-19T11:06:12;98940.59;;;27.08;38.01
43115;BME280;28727;50.068;14.452;2023-09-19T11:09:18;98928.47;;;27.24;36.49
43115;BME280;28727;50.068;14.452;2023-09-19T11:11:54;98932.59;;;27.21;36.23
43115;BME280;28727;50.068;14.452;2023-09-19T11:14:28;98932.84;;;26.96;36.31
43115;BME280;28727;50.068;14.452;2023-09-19T11:25:45;98920.00;;;27.07;36.63
43115;BME280;28727;50.068;14.452;2023-09-19T11:28:29;98934.84;;;26.80;37.36
43115;BME280;28727;50.068;14.452;2023-09-19T11:31:41;98930.47;;;26.56;37.42
43115;BME280;28727;50.068;14.452;2023-09-19T11:40:10;98927.53;;;26.03;38.62
43115;BME280;28727;50.068;14.452;2023-09-19T11:42:48;98931.50;;;25.72;38.83
43115;BME280;28727;50.068;14.452;2023-09-19T11:48:18;98929.13;;;25.40;39.00
43115;BME280;28727;50.068;14.452;2023-09-19T11:50:53;98924.50;;;25.55;38.82
43115;BME280;28727;50.068;14.452;2023-09-19T11:53:31;98921.34;;;25.92;38.11
43115;BME280;28727;50.068;14.452;2023-09-19T11:56:06;98923.59;;;26.29;36.62
43115;BME280;28727;50.068;14.452;2023-09-19T11:58:43;98924.00;;;26.46;37.17
43115;BME280;28727;50.068;14.452;2023-09-19T12:01:31;98923.28;;;26.70;36.71
43115;BME280;28727;50.068;14.452;2023-09-19T12:04:07;98924.72;;;26.62;37.14
43115;BME280;28727;50.068;14.452;2023-09-19T12:06:40;98924.38;;;26.69;36.21
43115;BME280;28727;50.068;14.452;2023-09-19T12:09:19;98929.84;;;26.64;36.79
43115;BME280;28727;50.068;14.452;2023-09-19T12:11:53;98939.53;;;26.70;36.24
43115;BME280;28727;50.068;14.452;2023-09-19T12:14:32;98927.06;;;26.69;36.37
43115;BME280;28727;50.068;14.452;2023-09-19T12:17:07;98928.63;;;26.80;35.80
43115;BME280;28727;50.068;14.452;2023-09-19T12:19:49;98923.38;;;26.94;35.81
43115;BME280;28727;50.068;14.452;2023-09-19T12:22:23;98924.53;;;27.11;34.31
43115;BME280;28727;50.068;14.452;2023-09-19T12:25:06;98917.84;;;27.27;34.65
43115;BME280;28727;50.068;14.452;2023-09-19T12:27:50;98924.94;;;27.52;34.63
43115;BME280;28727;50.068;14.452;2023-09-19T12:30:28;98920.88;;;27.50;33.90
43115;BME280;28727;50.068;14.452;2023-09-19T12:33:17;98923.16;;;27.66;32.72
43115;BME280;28727;50.068;14.452;2023-09-19T12:35:51;98919.84;;;27.69;33.49
43115;BME280;28727;50.068;14.452;2023-09-19T12:38:28;98921.16;;;27.72;32.91
43115;BME280;28727;50.068;14.452;2023-09-19T12:41:01;98917.28;;;27.78;32.36
43115;BME280;28727;50.068;14.452;2023-09-19T12:43:41;98907.16;;;27.84;32.52
43115;BME280;28727;50.068;14.452;2023-09-19T12:46:19;98906.53;;;27.92;32.26
43115;BME280;28727;50.068;14.452;2023-09-19T12:49:21;98901.59;;;27.94;31.73
43115;BME280;28727;50.068;14.452;2023-09-19T12:51:55;98901.09;;;27.92;31.97
43115;BME280;28727;50.068;14.452;2023-09-19T12:54:40;98906.28;;;27.88;32.15
43115;BME280;28727;50.068;14.452;2023-09-19T12:57:32;98910.16;;;27.82;32.53
43115;BME280;28727;50.068;14.452;2023-09-19T13:00:13;98899.81;;;27.65;32.22
43115;BME280;28727;50.068;14.452;2023-09-19T13:03:13;98903.69;;;27.59;32.46
43115;BME280;28727;50.068;14.452;2023-09-19T13:05:55;98903.16;;;27.57;31.53
43115;BME280;28727;50.068;14.452;2023-09-19T13:08:34;98903.34;;;27.66;32.04
43115;BME280;28727;50.068;14.452;2023-09-19T13:11:12;98899.63;;;27.57;32.47
43115;BME280;28727;50.068;14.452;2023-09-19T13:19:50;98896.56;;;27.40;31.73
43115;BME280;28727;50.068;14.452;2023-09-19T13:22:45;98890.09;;;27.36;31.57
43115;BME280;28727;50.068;14.452;2023-09-19T13:25:24;98892.06;;;27.06;31.28
43115;BME280;28727;50.068;14.452;2023-09-19T13:28:00;98889.13;;;27.03;31.98
43115;BME280;28727;50.068;14.452;2023-09-19T13:30:37;98889.63;;;27.05;31.71
43115;BME280;28727;50.068;14.452;2023-09-19T13:33:18;98892.94;;;27.02;31.94
43115;BME280;28727;50.068;14.452;2023-09-19T13:35:52;98894.88;;;26.96;32.62
43115;BME280;28727;50.068;14.452;2023-09-19T13:38:25;98889.75;;;26.95;31.66
43115;BME280;28727;50.068;14.452;2023-09-19T13:40:58;98887.56;;;26.97;30.88
43115;BME280;28727;50.068;14.452;2023-09-19T13:43:31;98889.06;;;26.79;31.87
43115;BME280;28727;50.068;14.452;2023-09-19T13:46:07;98885.91;;;26.67;31.60
43115;BME280;28727;50.068;14.452;2023-09-19T13:48:42;98887.16;;;26.51;30.86
43115;BME280;28727;50.068;14.452;2023-09-19T13:51:14;98892.44;;;26.32;30.66
43115;BME280;28727;50.068;14.452;2023-09-19T13:53:49;98900.13;;;26.15;31.42
43115;BME280;28727;50.068;14.452;2023-09-19T13:56:25;98898.00;;;26.06;32.47
43115;BME280;28727;50.068;14.452;2023-09-19T13:59:01;98896.69;;;25.99;32.16
43115;BME280;28727;50.068;14.452;2023-09-19T14:01:34;98897.00;;;25.92;31.72
43115;BME280;28727;50.068;14.452;2023-09-19T14:04:09;98888.34;;;25.95;32.08
43115;BME280;28727;50.068;14.452;2023-09-19T14:06:47;98890.81;;;25.87;31.51
43115;BME280;28727;50.068;14.452;2023-09-19T14:09:22;98888.44;;;25.75;31.86
43115;BME280;28727;50.068;14.452;2023-09-19T14:12:09;98890.59;;;25.78;31.70
43115;BME280;28727;50.068;14.452;2023-09-19T14:14:43;98891.44;;;25.68;32.31
43115;BME280;28727;50.068;14.452;2023-09-19T14:17:16;98886.34;;;25.52;32.54
43115;BME280;28727;50.068;14.452;2023-09-19T14:19:48;98890.44;;;25.49;32.83
43115;BME280;28727;50.068;14.452;2023-09-19T14:22:20;98884.50;;;25.42;33.99
43115;BME280;28727;50.068;14.452;2023-09-19T14:24:52;98878.56;;;25.40;33.49